sensor_id;sensor_type;location;lat;lon;timestamp;P1;durP1;ratioP1;P2;durP2;ratioP2
23676;SDS011;31493;49.058;12.190;2023-05-01T00:02:12;6.03;;;4.20;;
23676;SDS011;31493;49.058;12.190;2023-05-01T00:04:39;6.68;;;4.32;;
23676;SDS011;31493;49.058;12.190;2023-05-01T00:07:07;8.63;;;4.65;;
23676;SDS011;31493;49.058;12.190;2023-05-01T00:09:34;11.40;;;5.35;;
23676;SDS011;31493;49.058;12.190;2023-05-01T00:12:01;10.63;;;5.25;;
23676;SDS011;31493;49.058;12.190;2023-05-01T00:14:29;12.50;;;5.47;;
23676;SDS011;31493;49.058;12.190;2023-05-01T00:16:56;9.43;;;4.85;;
23676;SDS011;31493;49.058;12.190;2023-05-01T00:19:23;8.75;;;4.50;;
23676;SDS011;31493;49.058;12.190;2023-05-01T00:21:50;6.93;;;4.40;;
23676;SDS011;31493;49.058;12.190;2023-05-01T00:24:19;5.70;;;4.35;;
23676;SDS011;31493;49.058;12.190;2023-05-01T00:26:46;5.75;;;4.38;;
23676;SDS011;31493;49.058;12.190;2023-05-01T00:29:13;5.90;;;4.22;;
23676;SDS011;31493;49.058;12.190;2023-05-01T00:31:41;5.03;;;4.47;;
23676;SDS011;31493;49.058;12.190;2023-05-01T00:34:10;6.65;;;4.93;;
23676;SDS011;31493;49.058;12.190;2023-05-01T00:36:38;7.25;;;4.75;;
23676;SDS011;31493;49.058;12.190;2023-05-01T00:39:05;8.77;;;4.97;;
23676;SDS011;31493;49.058;12.190;2023-05-01T00:41:34;8.95;;;5.20;;
23676;SDS011;31493;49.058;12.190;2023-05-01T00:44:01;9.10;;;5.60;;
23676;SDS011;31493;49.058;12.190;2023-05-01T00:46:29;7.88;;;5.10;;
23676;SDS011;31493;49.058;12.190;2023-05-01T00:48:56;8.10;;;5.45;;
23676;SDS011;31493;49.058;12.190;2023-05-01T00:51:24;8.85;;;5.63;;
23676;SDS011;31493;49.058;12.190;2023-05-01T00:53:52;7.00;;;5.80;;
23676;SDS011;31493;49.058;12.190;2023-05-01T00:56:20;8.52;;;5.60;;
23676;SDS011;31493;49.058;12.190;2023-05-01T00:58:49;11.63;;;6.30;;
23676;SDS011;31493;49.058;12.190;2023-05-01T01:01:18;14.02;;;6.05;;
23676;SDS011;31493;49.058;12.190;2023-05-01T01:03:45;8.48;;;6.10;;
23676;SDS011;31493;49.058;12.190;2023-05-01T01:06:14;10.70;;;6.18;;
23676;SDS011;31493;49.058;12.190;2023-05-01T01:08:45;9.68;;;6.57;;
23676;SDS011;31493;49.058;12.190;2023-05-01T01:11:19;10.20;;;6.93;;
23676;SDS011;31493;49.058;12.190;2023-05-01T01:13:55;11.02;;;7.45;;
23676;SDS011;31493;49.058;12.190;2023-05-01T01:16:27;11.38;;;6.93;;
23676;SDS011;31493;49.058;12.190;2023-05-01T01:19:05;9.00;;;6.65;;
23676;SDS011;31493;49.058;12.190;2023-05-01T01:21:52;10.55;;;7.53;;
23676;SDS011;31493;49.058;12.190;2023-05-01T01:33:42;12.25;;;7.82;;
23676;SDS011;31493;49.058;12.190;2023-05-01T01:36:18;10.63;;;7.88;;
23676;SDS011;31493;49.058;12.190;2023-05-01T01:38:54;15.88;;;8.57;;
23676;SDS011;31493;49.058;12.190;2023-05-01T01:41:28;13.43;;;8.20;;
23676;SDS011;31493;49.058;12.190;2023-05-01T01:44:00;13.98;;;8.73;;
23676;SDS011;31493;49.058;12.190;2023-05-01T01:46:31;11.10;;;8.13;;
23676;SDS011;31493;49.058;12.190;2023-05-01T01:49:05;10.32;;;7.85;;
23676;SDS011;31493;49.058;12.190;2023-05-01T01:51:37;13.93;;;8.55;;
23676;SDS011;31493;49.058;12.190;2023-05-01T01:54:07;14.75;;;8.73;;
23676;SDS011;31493;49.058;12.190;2023-05-01T01:56:37;14.95;;;9.10;;
23676;SDS011;31493;49.058;12.190;2023-05-01T01:59:07;11.93;;;8.55;;
23676;SDS011;31493;49.058;12.190;2023-05-01T02:01:37;13.27;;;9.38;;
23676;SDS011;31493;49.058;12.190;2023-05-01T02:04:08;17.17;;;8.82;;
23676;SDS011;31493;49.058;12.190;2023-05-01T02:06:37;13.27;;;9.23;;
23676;SDS011;31493;49.058;12.190;2023-05-01T02:09:06;16.67;;;9.50;;
23676;SDS011;31493;49.058;12.190;2023-05-01T02:11:35;15.70;;;9.32;;
23676;SDS011;31493;49.058;12.190;2023-05-01T02:14:03;13.20;;;9.50;;
23676;SDS011;31493;49.058;12.190;2023-05-01T02:16:33;13.20;;;9.43;;
23676;SDS011;31493;49.058;12.190;2023-05-01T02:19:02;16.67;;;9.20;;
23676;SDS011;31493;49.058;12.190;2023-05-01T02:21:32;15.40;;;9.70;;
23676;SDS011;31493;49.058;12.190;2023-05-01T02:24:01;14.27;;;9.88;;
23676;SDS011;31493;49.058;12.190;2023-05-01T02:26:31;15.90;;;10.02;;
23676;SDS011;31493;49.058;12.190;2023-05-01T02:29:04;18.80;;;10.02;;
23676;SDS011;31493;49.058;12.190;2023-05-01T02:31:32;15.98;;;10.40;;
23676;SDS011;31493;49.058;12.190;2023-05-01T02:33:59;16.65;;;10.35;;
23676;SDS011;31493;49.058;12.190;2023-05-01T02:36:27;16.10;;;10.15;;
23676;SDS011;31493;49.058;12.190;2023-05-01T02:38:55;15.95;;;10.65;;
23676;SDS011;31493;49.058;12.190;2023-05-01T02:41:22;19.73;;;10.77;;
23676;SDS011;31493;49.058;12.190;2023-05-01T02:43:53;14.52;;;9.93;;
23676;SDS011;31493;49.058;12.190;2023-05-01T02:46:29;17.17;;;10.63;;
23676;SDS011;31493;49.058;12.190;2023-05-01T02:48:57;18.17;;;10.50;;
23676;SDS011;31493;49.058;12.190;2023-05-01T02:51:26;19.98;;;10.50;;
23676;SDS011;31493;49.058;12.190;2023-05-01T02:53:56;13.85;;;10.00;;
23676;SDS011;31493;49.058;12.190;2023-05-01T02:56:24;17.30;;;10.55;;
23676;SDS011;31493;49.058;12.190;2023-05-01T02:58:52;17.23;;;10.20;;
23676;SDS011;31493;49.058;12.190;2023-05-01T03:01:19;16.50;;;10.63;;
23676;SDS011;31493;49.058;12.190;2023-05-01T03:03:46;17.42;;;11.20;;
23676;SDS011;31493;49.058;12.190;2023-05-01T03:06:13;17.80;;;10.57;;
23676;SDS011;31493;49.058;12.190;2023-05-01T03:08:40;17.23;;;10.63;;
23676;SDS011;31493;49.058;12.190;2023-05-01T03:11:09;18.23;;;11.13;;
23676;SDS011;31493;49.058;12.190;2023-05-01T03:13:36;18.95;;;11.77;;
23676;SDS011;31493;49.058;12.190;2023-05-01T03:16:03;15.10;;;10.38;;
23676;SDS011;31493;49.058;12.190;2023-05-01T03:18:31;15.18;;;11.02;;
23676;SDS011;31493;49.058;12.190;2023-05-01T03:20:58;17.33;;;10.80;;
23676;SDS011;31493;49.058;12.190;2023-05-01T03:23:25;18.95;;;10.95;;
23676;SDS011;31493;49.058;12.190;2023-05-01T03:25:52;16.13;;;11.20;;
23676;SDS011;31493;49.058;12.190;2023-05-01T03:28:21;20.02;;;11.52;;
23676;SDS011;31493;49.058;12.190;2023-05-01T03:30:48;19.98;;;11.70;;
23676;SDS011;31493;49.058;12.190;2023-05-01T03:33:15;18.67;;;11.50;;
23676;SDS011;31493;49.058;12.190;2023-05-01T03:35:42;19.73;;;12.02;;
23676;SDS011;31493;49.058;12.190;2023-05-01T03:38:09;17.70;;;12.45;;
23676;SDS011;31493;49.058;12.190;2023-05-01T03:40:36;15.98;;;11.13;;
23676;SDS011;31493;49.058;12.190;2023-05-01T03:43:03;18.60;;;12.52;;
23676;SDS011;31493;49.058;12.190;2023-05-01T03:45:32;20.25;;;11.95;;
23676;SDS011;31493;49.058;12.190;2023-05-01T03:47:59;23.75;;;12.93;;
23676;SDS011;31493;49.058;12.190;2023-05-01T03:50:26;17.73;;;11.63;;
23676;SDS011;31493;49.058;12.190;2023-05-01T03:52:53;22.33;;;12.50;;
23676;SDS011;31493;49.058;12.190;2023-05-01T03:55:21;19.60;;;12.60;;
23676;SDS011;31493;49.058;12.190;2023-05-01T03:57:48;20.05;;;13.02;;
23676;SDS011;31493;49.058;12.190;2023-05-01T04:00:15;20.58;;;12.30;;
23676;SDS011;31493;49.058;12.190;2023-05-01T04:02:44;19.17;;;12.45;;
23676;SDS011;31493;49.058;12.190;2023-05-01T04:05:11;21.38;;;12.32;;
23676;SDS011;31493;49.058;12.190;2023-05-01T04:07:38;21.85;;;12.57;;
23676;SDS011;31493;49.058;12.190;2023-05-01T04:10:06;21.45;;;13.02;;
23676;SDS011;31493;49.058;12.190;2023-05-01T04:12:34;20.05;;;12.98;;
23676;SDS011;31493;49.058;12.190;2023-05-01T04:15:01;20.02;;;12.95;;
23676;SDS011;31493;49.058;12.190;2023-05-01T04:17:29;18.73;;;12.88;;
23676;SDS011;31493;49.058;12.190;2023-05-01T04:19:57;20.05;;;12.90;;
23676;SDS011;31493;49.058;12.190;2023-05-01T04:22:25;20.70;;;12.68;;
23676;SDS011;31493;49.058;12.190;2023-05-01T04:24:52;17.92;;;12.30;;
23676;SDS011;31493;49.058;12.190;2023-05-01T04:27:19;22.05;;;13.20;;
23676;SDS011;31493;49.058;12.190;2023-05-01T04:29:46;22.17;;;13.13;;
23676;SDS011;31493;49.058;12.190;2023-05-01T04:32:13;19.27;;;13.52;;
23676;SDS011;31493;49.058;12.190;2023-05-01T04:34:41;20.63;;;13.32;;
23676;SDS011;31493;49.058;12.190;2023-05-01T04:37:10;21.08;;;13.00;;
23676;SDS011;31493;49.058;12.190;2023-05-01T04:39:37;21.95;;;13.27;;
23676;SDS011;31493;49.058;12.190;2023-05-01T04:42:04;21.00;;;12.55;;
23676;SDS011;31493;49.058;12.190;2023-05-01T04:44:31;20.95;;;13.25;;
23676;SDS011;31493;49.058;12.190;2023-05-01T04:49:27;21.52;;;13.15;;
23676;SDS011;31493;49.058;12.190;2023-05-01T04:51:54;19.45;;;12.82;;
23676;SDS011;31493;49.058;12.190;2023-05-01T04:54:23;21.98;;;13.02;;
23676;SDS011;31493;49.058;12.190;2023-05-01T04:56:50;23.05;;;13.70;;
23676;SDS011;31493;49.058;12.190;2023-05-01T04:59:17;22.60;;;13.07;;
23676;SDS011;31493;49.058;12.190;2023-05-01T05:01:44;23.02;;;14.18;;
23676;SDS011;31493;49.058;12.190;2023-05-01T05:04:11;22.88;;;13.23;;
23676;SDS011;31493;49.058;12.190;2023-05-01T05:06:38;19.17;;;12.90;;
23676;SDS011;31493;49.058;12.190;2023-05-01T05:09:05;22.02;;;12.68;;
23676;SDS011;31493;49.058;12.190;2023-05-01T05:11:33;21.98;;;12.43;;
23676;SDS011;31493;49.058;12.190;2023-05-01T05:14:00;20.23;;;12.55;;
23676;SDS011;31493;49.058;12.190;2023-05-01T05:16:28;18.50;;;12.52;;
23676;SDS011;31493;49.058;12.190;2023-05-01T05:18:55;21.95;;;13.60;;
23676;SDS011;31493;49.058;12.190;2023-05-01T05:21:22;24.17;;;13.95;;
23676;SDS011;31493;49.058;12.190;2023-05-01T05:23:49;22.27;;;13.48;;
23676;SDS011;31493;49.058;12.190;2023-05-01T05:26:16;21.52;;;13.45;;
23676;SDS011;31493;49.058;12.190;2023-05-01T05:28:45;20.63;;;14.10;;
23676;SDS011;31493;49.058;12.190;2023-05-01T05:31:12;23.35;;;12.90;;
23676;SDS011;31493;49.058;12.190;2023-05-01T05:33:39;21.35;;;13.50;;
23676;SDS011;31493;49.058;12.190;2023-05-01T05:36:06;20.42;;;13.20;;
23676;SDS011;31493;49.058;12.190;2023-05-01T05:38:33;20.42;;;13.73;;
23676;SDS011;31493;49.058;12.190;2023-05-01T05:41:00;23.90;;;14.38;;
23676;SDS011;31493;49.058;12.190;2023-05-01T05:43:27;21.10;;;13.43;;
23676;SDS011;31493;49.058;12.190;2023-05-01T05:45:58;23.38;;;14.63;;
23676;SDS011;31493;49.058;12.190;2023-05-01T05:48:26;22.83;;;13.85;;
23676;SDS011;31493;49.058;12.190;2023-05-01T05:50:53;19.65;;;13.85;;
23676;SDS011;31493;49.058;12.190;2023-05-01T05:53:21;20.83;;;14.02;;
23676;SDS011;31493;49.058;12.190;2023-05-01T05:55:48;22.05;;;13.98;;
23676;SDS011;31493;49.058;12.190;2023-05-01T05:58:15;21.85;;;13.65;;
23676;SDS011;31493;49.058;12.190;2023-05-01T06:00:45;20.02;;;13.50;;
23676;SDS011;31493;49.058;12.190;2023-05-01T06:03:14;22.63;;;14.70;;
23676;SDS011;31493;49.058;12.190;2023-05-01T06:08:09;22.27;;;13.85;;
23676;SDS011;31493;49.058;12.190;2023-05-01T06:10:36;20.25;;;14.18;;
23676;SDS011;31493;49.058;12.190;2023-05-01T06:13:07;21.88;;;13.75;;
23676;SDS011;31493;49.058;12.190;2023-05-01T06:15:35;24.13;;;14.82;;
23676;SDS011;31493;49.058;12.190;2023-05-01T06:18:02;21.98;;;14.90;;
23676;SDS011;31493;49.058;12.190;2023-05-01T06:20:31;21.95;;;13.70;;
23676;SDS011;31493;49.058;12.190;2023-05-01T06:22:58;21.10;;;14.02;;
23676;SDS011;31493;49.058;12.190;2023-05-01T06:25:25;21.63;;;13.80;;
23676;SDS011;31493;49.058;12.190;2023-05-01T06:27:52;18.88;;;13.57;;
23676;SDS011;31493;49.058;12.190;2023-05-01T06:30:19;24.65;;;13.75;;
23676;SDS011;31493;49.058;12.190;2023-05-01T06:32:46;27.30;;;14.07;;
23676;SDS011;31493;49.058;12.190;2023-05-01T06:35:14;22.08;;;14.10;;
23676;SDS011;31493;49.058;12.190;2023-05-01T06:37:42;24.13;;;14.05;;
23676;SDS011;31493;49.058;12.190;2023-05-01T06:40:09;21.90;;;13.98;;
23676;SDS011;31493;49.058;12.190;2023-05-01T06:45:20;22.17;;;13.77;;
23676;SDS011;31493;49.058;12.190;2023-05-01T06:47:47;23.00;;;13.43;;
23676;SDS011;31493;49.058;12.190;2023-05-01T06:50:14;22.42;;;14.32;;
23676;SDS011;31493;49.058;12.190;2023-05-01T06:52:42;23.38;;;13.18;;
23676;SDS011;31493;49.058;12.190;2023-05-01T06:55:10;24.33;;;13.40;;
23676;SDS011;31493;49.058;12.190;2023-05-01T06:57:37;21.90;;;14.20;;
23676;SDS011;31493;49.058;12.190;2023-05-01T07:00:05;19.17;;;13.10;;
23676;SDS011;31493;49.058;12.190;2023-05-01T07:02:35;20.05;;;13.25;;
23676;SDS011;31493;49.058;12.190;2023-05-01T07:05:02;21.50;;;13.60;;
23676;SDS011;31493;49.058;12.190;2023-05-01T07:07:30;19.45;;;12.40;;
23676;SDS011;31493;49.058;12.190;2023-05-01T07:09:58;19.17;;;12.77;;
23676;SDS011;31493;49.058;12.190;2023-05-01T07:12:25;23.08;;;12.18;;
23676;SDS011;31493;49.058;12.190;2023-05-01T07:14:52;18.15;;;12.40;;
23676;SDS011;31493;49.058;12.190;2023-05-01T07:17:19;20.20;;;12.02;;
23676;SDS011;31493;49.058;12.190;2023-05-01T07:19:46;18.58;;;11.35;;
23676;SDS011;31493;49.058;12.190;2023-05-01T07:22:14;17.63;;;11.70;;
23676;SDS011;31493;49.058;12.190;2023-05-01T07:24:41;16.00;;;9.40;;
23676;SDS011;31493;49.058;12.190;2023-05-01T07:27:10;16.58;;;11.13;;
23676;SDS011;31493;49.058;12.190;2023-05-01T07:29:37;17.02;;;11.23;;
23676;SDS011;31493;49.058;12.190;2023-05-01T07:32:04;18.75;;;11.45;;
23676;SDS011;31493;49.058;12.190;2023-05-01T07:34:31;15.65;;;10.73;;
23676;SDS011;31493;49.058;12.190;2023-05-01T07:36:59;20.27;;;10.32;;
23676;SDS011;31493;49.058;12.190;2023-05-01T07:39:26;15.70;;;10.05;;
23676;SDS011;31493;49.058;12.190;2023-05-01T07:41:53;13.23;;;8.13;;
23676;SDS011;31493;49.058;12.190;2023-05-01T07:44:25;8.25;;;5.88;;
23676;SDS011;31493;49.058;12.190;2023-05-01T07:46:52;6.63;;;4.40;;
23676;SDS011;31493;49.058;12.190;2023-05-01T07:49:19;6.78;;;3.95;;
23676;SDS011;31493;49.058;12.190;2023-05-01T07:51:47;8.80;;;4.35;;
23676;SDS011;31493;49.058;12.190;2023-05-01T07:54:14;5.40;;;3.70;;
23676;SDS011;31493;49.058;12.190;2023-05-01T07:56:41;7.45;;;4.10;;
23676;SDS011;31493;49.058;12.190;2023-05-01T07:59:08;6.90;;;4.13;;
23676;SDS011;31493;49.058;12.190;2023-05-01T08:01:37;10.00;;;4.25;;
23676;SDS011;31493;49.058;12.190;2023-05-01T08:04:04;7.68;;;4.40;;
23676;SDS011;31493;49.058;12.190;2023-05-01T08:06:32;6.90;;;4.50;;
23676;SDS011;31493;49.058;12.190;2023-05-01T08:08:59;5.53;;;4.07;;
23676;SDS011;31493;49.058;12.190;2023-05-01T08:11:26;7.60;;;4.28;;
23676;SDS011;31493;49.058;12.190;2023-05-01T08:13:54;7.82;;;4.32;;
23676;SDS011;31493;49.058;12.190;2023-05-01T08:16:21;6.22;;;4.47;;
23676;SDS011;31493;49.058;12.190;2023-05-01T08:18:49;6.22;;;4.00;;
23676;SDS011;31493;49.058;12.190;2023-05-01T08:21:16;6.18;;;4.32;;
23676;SDS011;31493;49.058;12.190;2023-05-01T08:23:43;6.57;;;4.03;;
23676;SDS011;31493;49.058;12.190;2023-05-01T08:26:10;5.82;;;3.97;;
23676;SDS011;31493;49.058;12.190;2023-05-01T08:28:38;5.70;;;4.30;;
23676;SDS011;31493;49.058;12.190;2023-05-01T08:31:06;5.97;;;4.00;;
23676;SDS011;31493;49.058;12.190;2023-05-01T08:33:33;7.47;;;4.50;;
23676;SDS011;31493;49.058;12.190;2023-05-01T08:36:02;7.78;;;4.22;;
23676;SDS011;31493;49.058;12.190;2023-05-01T08:38:29;9.32;;;4.43;;
23676;SDS011;31493;49.058;12.190;2023-05-01T08:40:56;7.90;;;4.72;;
23676;SDS011;31493;49.058;12.190;2023-05-01T08:43:26;7.53;;;4.80;;
23676;SDS011;31493;49.058;12.190;2023-05-01T08:45:54;8.60;;;4.07;;
23676;SDS011;31493;49.058;12.190;2023-05-01T08:48:24;8.30;;;4.00;;
23676;SDS011;31493;49.058;12.190;2023-05-01T08:50:54;8.38;;;4.47;;
23676;SDS011;31493;49.058;12.190;2023-05-01T08:53:25;9.18;;;4.82;;
23676;SDS011;31493;49.058;12.190;2023-05-01T08:55:53;6.30;;;4.35;;
23676;SDS011;31493;49.058;12.190;2023-05-01T09:00:50;6.10;;;4.03;;
23676;SDS011;31493;49.058;12.190;2023-05-01T09:03:21;5.20;;;3.60;;
23676;SDS011;31493;49.058;12.190;2023-05-01T09:05:48;8.93;;;3.78;;
23676;SDS011;31493;49.058;12.190;2023-05-01T09:08:16;5.43;;;3.65;;
23676;SDS011;31493;49.058;12.190;2023-05-01T09:10:45;6.40;;;3.90;;
23676;SDS011;31493;49.058;12.190;2023-05-01T09:13:14;5.18;;;3.50;;
23676;SDS011;31493;49.058;12.190;2023-05-01T09:15:42;6.13;;;3.78;;
23676;SDS011;31493;49.058;12.190;2023-05-01T09:18:09;4.93;;;3.10;;
23676;SDS011;31493;49.058;12.190;2023-05-01T09:20:37;6.60;;;3.13;;
23676;SDS011;31493;49.058;12.190;2023-05-01T09:23:04;6.53;;;3.53;;
23676;SDS011;31493;49.058;12.190;2023-05-01T09:25:31;6.28;;;3.40;;
23676;SDS011;31493;49.058;12.190;2023-05-01T09:28:00;7.60;;;3.55;;
23676;SDS011;31493;49.058;12.190;2023-05-01T09:30:30;5.50;;;3.30;;
23676;SDS011;31493;49.058;12.190;2023-05-01T09:33:06;8.23;;;3.95;;
23676;SDS011;31493;49.058;12.190;2023-05-01T09:35:49;5.78;;;3.58;;
23676;SDS011;31493;49.058;12.190;2023-05-01T09:38:18;5.25;;;3.92;;
23676;SDS011;31493;49.058;12.190;2023-05-01T09:40:46;6.70;;;3.85;;
23676;SDS011;31493;49.058;12.190;2023-05-01T09:43:15;4.40;;;3.53;;
23676;SDS011;31493;49.058;12.190;2023-05-01T09:45:58;4.82;;;3.40;;
23676;SDS011;31493;49.058;12.190;2023-05-01T09:48:28;4.18;;;3.05;;
23676;SDS011;31493;49.058;12.190;2023-05-01T09:50:55;6.45;;;3.65;;
23676;SDS011;31493;49.058;12.190;2023-05-01T09:53:32;5.68;;;3.50;;
23676;SDS011;31493;49.058;12.190;2023-05-01T09:56:02;4.72;;;3.47;;
23676;SDS011;31493;49.058;12.190;2023-05-01T09:58:31;7.32;;;3.58;;
23676;SDS011;31493;49.058;12.190;2023-05-01T10:00:58;5.53;;;3.10;;
23676;SDS011;31493;49.058;12.190;2023-05-01T10:03:26;4.45;;;3.20;;
23676;SDS011;31493;49.058;12.190;2023-05-01T10:05:53;5.28;;;3.00;;
23676;SDS011;31493;49.058;12.190;2023-05-01T10:08:22;5.10;;;3.25;;
23676;SDS011;31493;49.058;12.190;2023-05-01T10:10:58;7.07;;;3.45;;
23676;SDS011;31493;49.058;12.190;2023-05-01T10:13:29;5.60;;;2.70;;
23676;SDS011;31493;49.058;12.190;2023-05-01T10:15:57;4.65;;;3.22;;
23676;SDS011;31493;49.058;12.190;2023-05-01T10:18:26;6.40;;;3.53;;
23676;SDS011;31493;49.058;12.190;2023-05-01T10:20:55;3.63;;;3.10;;
23676;SDS011;31493;49.058;12.190;2023-05-01T10:23:22;7.53;;;3.60;;
23676;SDS011;31493;49.058;12.190;2023-05-01T10:25:51;7.68;;;3.25;;
23676;SDS011;31493;49.058;12.190;2023-05-01T10:28:19;5.57;;;3.00;;
23676;SDS011;31493;49.058;12.190;2023-05-01T10:30:47;6.18;;;3.40;;
23676;SDS011;31493;49.058;12.190;2023-05-01T10:33:15;4.55;;;2.97;;
23676;SDS011;31493;49.058;12.190;2023-05-01T10:35:43;9.05;;;3.45;;
23676;SDS011;31493;49.058;12.190;2023-05-01T10:38:18;7.22;;;3.20;;
23676;SDS011;31493;49.058;12.190;2023-05-01T10:40:48;5.95;;;3.22;;
23676;SDS011;31493;49.058;12.190;2023-05-01T10:43:17;7.20;;;3.20;;
23676;SDS011;31493;49.058;12.190;2023-05-01T10:45:51;5.43;;;2.88;;
23676;SDS011;31493;49.058;12.190;2023-05-01T10:51:19;10.13;;;2.70;;
23676;SDS011;31493;49.058;12.190;2023-05-01T10:53:47;7.88;;;3.03;;
23676;SDS011;31493;49.058;12.190;2023-05-01T10:59:07;7.85;;;3.40;;
23676;SDS011;31493;49.058;12.190;2023-05-01T11:01:36;5.28;;;2.92;;
23676;SDS011;31493;49.058;12.190;2023-05-01T11:04:05;8.40;;;2.88;;
23676;SDS011;31493;49.058;12.190;2023-05-01T11:06:34;6.22;;;2.83;;
23676;SDS011;31493;49.058;12.190;2023-05-01T11:09:34;6.05;;;3.10;;
23676;SDS011;31493;49.058;12.190;2023-05-01T11:12:03;3.58;;;3.03;;
23676;SDS011;31493;49.058;12.190;2023-05-01T11:17:46;5.80;;;3.25;;
23676;SDS011;31493;49.058;12.190;2023-05-01T11:23:19;7.90;;;3.10;;
23676;SDS011;31493;49.058;12.190;2023-05-01T11:25:47;6.10;;;3.28;;
23676;SDS011;31493;49.058;12.190;2023-05-01T11:28:19;5.50;;;3.40;;
23676;SDS011;31493;49.058;12.190;2023-05-01T11:30:47;4.95;;;3.03;;
23676;SDS011;31493;49.058;12.190;2023-05-01T11:33:21;5.05;;;3.08;;
23676;SDS011;31493;49.058;12.190;2023-05-01T11:35:57;6.47;;;3.35;;
23676;SDS011;31493;49.058;12.190;2023-05-01T11:38:25;6.53;;;3.08;;
23676;SDS011;31493;49.058;12.190;2023-05-01T11:40:56;5.72;;;3.47;;
23676;SDS011;31493;49.058;12.190;2023-05-01T11:43:25;3.95;;;2.83;;
23676;SDS011;31493;49.058;12.190;2023-05-01T11:45:53;6.15;;;3.63;;
23676;SDS011;31493;49.058;12.190;2023-05-01T11:48:28;4.05;;;3.28;;
23676;SDS011;31493;49.058;12.190;2023-05-01T11:50:57;7.22;;;3.38;;
23676;SDS011;31493;49.058;12.190;2023-05-01T11:53:24;5.40;;;3.35;;
23676;SDS011;31493;49.058;12.190;2023-05-01T11:55:51;6.75;;;3.50;;
23676;SDS011;31493;49.058;12.190;2023-05-01T11:58:29;7.72;;;3.13;;
23676;SDS011;31493;49.058;12.190;2023-05-01T12:00:57;6.40;;;3.25;;
23676;SDS011;31493;49.058;12.190;2023-05-01T12:03:24;5.50;;;3.25;;
23676;SDS011;31493;49.058;12.190;2023-05-01T12:05:52;5.50;;;3.38;;
23676;SDS011;31493;49.058;12.190;2023-05-01T12:08:20;4.20;;;2.90;;
23676;SDS011;31493;49.058;12.190;2023-05-01T12:10:49;5.28;;;2.90;;
23676;SDS011;31493;49.058;12.190;2023-05-01T12:13:17;4.43;;;3.38;;
23676;SDS011;31493;49.058;12.190;2023-05-01T12:15:46;4.43;;;3.30;;
23676;SDS011;31493;49.058;12.190;2023-05-01T12:18:14;4.78;;;3.30;;
23676;SDS011;31493;49.058;12.190;2023-05-01T12:20:43;5.18;;;3.63;;
23676;SDS011;31493;49.058;12.190;2023-05-01T12:23:13;5.25;;;3.67;;
23676;SDS011;31493;49.058;12.190;2023-05-01T12:25:41;6.32;;;3.47;;
23676;SDS011;31493;49.058;12.190;2023-05-01T12:28:11;4.50;;;3.53;;
23676;SDS011;31493;49.058;12.190;2023-05-01T12:30:39;6.40;;;3.35;;
23676;SDS011;31493;49.058;12.190;2023-05-01T12:33:08;4.88;;;3.50;;
23676;SDS011;31493;49.058;12.190;2023-05-01T12:35:37;5.57;;;3.40;;
23676;SDS011;31493;49.058;12.190;2023-05-01T12:38:08;8.85;;;3.45;;
23676;SDS011;31493;49.058;12.190;2023-05-01T12:40:38;4.25;;;3.28;;
23676;SDS011;31493;49.058;12.190;2023-05-01T12:43:06;5.47;;;3.03;;
23676;SDS011;31493;49.058;12.190;2023-05-01T12:45:39;5.18;;;3.33;;
23676;SDS011;31493;49.058;12.190;2023-05-01T12:48:12;5.60;;;3.80;;
23676;SDS011;31493;49.058;12.190;2023-05-01T12:50:40;5.35;;;3.58;;
23676;SDS011;31493;49.058;12.190;2023-05-01T12:53:08;7.25;;;3.80;;
23676;SDS011;31493;49.058;12.190;2023-05-01T12:55:43;8.47;;;3.87;;
23676;SDS011;31493;49.058;12.190;2023-05-01T12:58:12;4.57;;;3.22;;
23676;SDS011;31493;49.058;12.190;2023-05-01T13:00:43;4.75;;;3.40;;
23676;SDS011;31493;49.058;12.190;2023-05-01T13:03:11;5.75;;;3.40;;
23676;SDS011;31493;49.058;12.190;2023-05-01T13:05:54;6.47;;;3.70;;
23676;SDS011;31493;49.058;12.190;2023-05-01T13:08:26;9.00;;;3.40;;
23676;SDS011;31493;49.058;12.190;2023-05-01T13:10:56;8.10;;;3.78;;
23676;SDS011;31493;49.058;12.190;2023-05-01T13:13:25;5.63;;;3.60;;
23676;SDS011;31493;49.058;12.190;2023-05-01T13:15:53;7.78;;;3.58;;
23676;SDS011;31493;49.058;12.190;2023-05-01T13:18:30;7.28;;;3.80;;
23676;SDS011;31493;49.058;12.190;2023-05-01T13:21:05;5.18;;;3.55;;
23676;SDS011;31493;49.058;12.190;2023-05-01T13:23:33;5.20;;;3.30;;
23676;SDS011;31493;49.058;12.190;2023-05-01T13:26:04;6.63;;;3.60;;
23676;SDS011;31493;49.058;12.190;2023-05-01T13:28:32;6.40;;;3.92;;
23676;SDS011;31493;49.058;12.190;2023-05-01T13:31:00;4.32;;;3.55;;
23676;SDS011;31493;49.058;12.190;2023-05-01T13:33:28;3.92;;;3.20;;
23676;SDS011;31493;49.058;12.190;2023-05-01T13:35:57;7.25;;;3.22;;
23676;SDS011;31493;49.058;12.190;2023-05-01T13:38:24;5.32;;;3.30;;
23676;SDS011;31493;49.058;12.190;2023-05-01T13:40:51;5.80;;;3.70;;
23676;SDS011;31493;49.058;12.190;2023-05-01T13:43:20;6.38;;;3.72;;
23676;SDS011;31493;49.058;12.190;2023-05-01T13:45:48;6.03;;;3.75;;
23676;SDS011;31493;49.058;12.190;2023-05-01T13:48:16;6.72;;;3.40;;
23676;SDS011;31493;49.058;12.190;2023-05-01T13:50:44;7.60;;;3.38;;
23676;SDS011;31493;49.058;12.190;2023-05-01T13:53:12;6.93;;;3.58;;
23676;SDS011;31493;49.058;12.190;2023-05-01T13:55:40;4.20;;;3.30;;
23676;SDS011;31493;49.058;12.190;2023-05-01T13:58:07;5.13;;;3.80;;
23676;SDS011;31493;49.058;12.190;2023-05-01T14:00:36;7.40;;;3.95;;
23676;SDS011;31493;49.058;12.190;2023-05-01T14:03:04;4.97;;;3.40;;
23676;SDS011;31493;49.058;12.190;2023-05-01T14:05:31;6.25;;;3.38;;
23676;SDS011;31493;49.058;12.190;2023-05-01T14:07:58;4.68;;;3.17;;
23676;SDS011;31493;49.058;12.190;2023-05-01T14:10:27;7.97;;;3.80;;
23676;SDS011;31493;49.058;12.190;2023-05-01T14:12:55;6.00;;;3.63;;
23676;SDS011;31493;49.058;12.190;2023-05-01T14:15:23;5.88;;;3.75;;
23676;SDS011;31493;49.058;12.190;2023-05-01T14:17:54;6.55;;;4.07;;
23676;SDS011;31493;49.058;12.190;2023-05-01T14:20:23;4.68;;;3.92;;
23676;SDS011;31493;49.058;12.190;2023-05-01T14:22:51;7.50;;;4.03;;
23676;SDS011;31493;49.058;12.190;2023-05-01T14:25:21;8.80;;;4.43;;
23676;SDS011;31493;49.058;12.190;2023-05-01T14:27:50;5.85;;;3.78;;
23676;SDS011;31493;49.058;12.190;2023-05-01T14:30:21;7.15;;;3.85;;
23676;SDS011;31493;49.058;12.190;2023-05-01T14:32:52;6.53;;;3.75;;
23676;SDS011;31493;49.058;12.190;2023-05-01T14:35:22;8.20;;;4.10;;
23676;SDS011;31493;49.058;12.190;2023-05-01T14:37:50;5.65;;;3.88;;
23676;SDS011;31493;49.058;12.190;2023-05-01T14:40:18;6.13;;;3.92;;
23676;SDS011;31493;49.058;12.190;2023-05-01T14:42:51;7.57;;;4.38;;
23676;SDS011;31493;49.058;12.190;2023-05-01T14:45:19;6.15;;;4.43;;
23676;SDS011;31493;49.058;12.190;2023-05-01T14:47:47;7.28;;;4.68;;
23676;SDS011;31493;49.058;12.190;2023-05-01T14:50:19;7.00;;;5.68;;
23676;SDS011;31493;49.058;12.190;2023-05-01T14:52:51;7.50;;;5.03;;
23676;SDS011;31493;49.058;12.190;2023-05-01T14:55:20;6.78;;;5.57;;
23676;SDS011;31493;49.058;12.190;2023-05-01T14:57:51;7.55;;;5.47;;
23676;SDS011;31493;49.058;12.190;2023-05-01T15:00:19;7.32;;;5.57;;
23676;SDS011;31493;49.058;12.190;2023-05-01T15:02:46;6.82;;;5.63;;
23676;SDS011;31493;49.058;12.190;2023-05-01T15:05:13;8.68;;;6.00;;